Airfield :
LOGIN :

Register | Disclaimer

   EN    FR    IT 

 










Legend :    VFR   Marginal VFR   IFR   Intensive IFR   Very Intensive IFR
Visi :
Ceiling :
>= 8 km
>= 3000ft
5 to 8 km
1000 to 3000 ft
1500m to 5 km
500 to 1000 ft
800 to 1500m
200 to 500 ft
< 800m
< 200 ft
Symbols :   Thunderstorms  Fog  Heavy snow  Heavy precipitations  Wind > 20 kt
SIGMETs :     Misc.  Thunderstorms  Icing  Turbulence  Mountain Waves  Volcanic Ashes






- Airport Elevation : 13 ft
- IATA code : CEQ


LFMD - Cannes Mandelieu

CURRENT METAR :
  • 271800Z AUTO 22005KT 9999 FEW060 OVC150 12/07 Q1017 TEMPO 4000 RA

EXPIRED METARs :
  • 271730Z AUTO 24005KT 200V290 9999 FEW060 OVC160 12/07 Q1017 TEMPO 4000 RA
  • 271700Z AUTO 23004KT 210V270 9999 FEW045 BKN060 OVC170 13/06 Q1017 NOSIG
  • 271630Z AUTO 22004KT 190V250 9999 OVC049 13/06 Q1017 NOSIG
  • 271600Z AUTO 23003KT 200V260 9999 BKN050 BKN060 BKN160 13/06 Q1017 NOSIG
  • 271530Z AUTO 21005KT CAVOK 13/07 Q1017 NOSIG
  • 271500Z AUTO 24008KT 210V270 CAVOK 14/06 Q1017 NOSIG

TAF TAF LFMD
Valid from the 27 at 15:00 until the 28 at 15:00 UTC


271400Z 2715/2815 22010KT CAVOK
TEMPO 2719/2723 28008KT
PROB40
TEMPO 2719/2723 4000 RA
BECMG 2808/2810 24015G30KT
ATIS : +33 4 93 48 73 23



MET'MAP, your aeronautical weather chart ! - Copyright ORBIFLY December 2007 - Disclaimer

ORBIFLY MET'MAP TEAM :

Programming & Development : Alexandra Zaïnal
Concept & original design : Baudouin d'Aumeries
Assistance for programming : Marc-Olivier Méhu
Technical & hardware support : Manuel Goepfert

Contact : metmap@orbifly.com




SOURCES & CREDITS :

   NOAA